LES MASIES DE RODA (Osona)





Hora UTC 09:25
Temperatura 26.4 ºC
Sòl 15 cm 29.1 ºC
Subsòl 10 cm 23.5 ºC
Humitat 53.2 %
Pressió 1013.6 hPa
Pluja 0.0 mm
Velocitat vent 6.1 km/h
Direcció vent SE
Radiació solar 738.2 W/m²

Dades diàries 2024-06-18



Hora UTC (hivern +1h; estiu +2h)
Temperatura (ºC) Humitat (%) Pressió (hPa) Velocitat vent (km/h) Precipitació (mm) Radiació solar (W/m²)
Hora UTC Aire Sòl 15 cm Subsòl 10 cm Humitat Pressió Vel. Dir. Vel. Max Dir. Intent. màx 5 min. Rad. Sol.
00:05 14.8 12.4 21.9 91.0 1015.4 1.4 WNW 1.4 NW 0.0 0.1
00:10 14.7 12.3 21.9 91.7 1015.4 1.0 NW 2.8 WNW 0.0 0.1
00:15 14.7 12.3 21.8 92.2 1015.3 0.0 NNE 0.0 NW 0.0 0.1
00:20 14.7 12.2 21.8 92.0 1015.3 0.0 NNE 0.0 NW 0.0 0.1
00:25 14.7 12.2 21.8 91.8 1015.2 1.4 E 2.8 ENE 0.0 0.1
00:30 14.7 12.2 21.8 91.5 1015.2 1.2 E 2.8 E 0.0 0.1
00:35 14.6 12.2 21.8 91.6 1015.1 1.9 ENE 3.5 NE 0.0 0.1
00:40 14.5 12.2 21.9 91.9 1015.1 1.4 NNE 3.2 N 0.0 0.1
00:45 14.3 12.2 21.9 91.3 1015.1 2.1 NNW 2.8 NNW 0.0 0.1
00:50 14.2 12.0 21.9 91.7 1015.2 0.4 NNE 2.5 N 0.0 0.1
00:55 14.2 11.9 21.9 92.4 1015.2 0.2 NNE 1.8 NNE 0.0 0.1
01:00 14.3 11.9 21.9 92.7 1015.2 1.0 E 2.1 E 0.0 0.1
01:05 14.2 11.9 21.9 92.5 1015.1 0.0 NNE 0.0 E 0.0 0.1
01:10 14.1 11.9 21.9 92.7 1015.1 0.0 NNE 0.0 E 0.0 0.1
01:15 14.1 11.9 21.8 92.6 1015.1 0.1 E 1.8 E 0.0 0.1
01:20 14.0 11.9 21.8 92.4 1015.0 0.0 NNE 0.0 E 0.0 0.1
01:25 14.0 11.7 21.8 92.6 1015.0 0.7 NE 2.8 NE 0.0 0.1
01:30 13.8 11.7 21.8 92.4 1015.0 0.3 NNE 2.1 NNE 0.0 0.1
01:35 13.7 11.6 21.7 92.8 1015.0 0.1 NNE 1.8 NNE 0.0 0.1
01:40 13.7 11.5 21.7 93.0 1015.0 0.0 NNE 0.0 NNE 0.0 0.1
01:45 13.8 11.4 21.7 93.3 1014.9 0.0 NNE 0.0 NNE 0.0 0.1
01:50 13.7 11.4 21.6 92.9 1015.0 0.0 NNE 0.0 NNE 0.0 0.1
01:55 13.6 11.4 21.6 93.1 1014.9 1.4 NE 3.2 NE 0.0 0.1
02:00 13.5 11.4 21.5 93.3 1014.9 0.8 NE 2.5 ENE 0.0 0.1
02:05 13.3 11.3 21.5 92.8 1014.8 0.6 NE 2.5 NE 0.0 0.1
02:10 13.3 11.2 21.5 92.4 1014.8 0.8 NE 3.9 NNE 0.0 0.1
02:15 13.3 11.2 21.4 92.2 1014.8 1.2 NNE 3.9 NNE 0.0 0.1
02:20 13.3 11.1 21.4 92.0 1014.8 0.0 NNE 0.0 NNE 0.0 0.1
02:25 13.2 11.0 21.4 92.0 1014.7 1.4 E 3.5 ENE 0.0 0.1
02:30 13.3 11.1 21.3 92.4 1014.5 2.7 ESE 3.5 ESE 0.0 0.1
02:35 13.2 11.0 21.3 92.3 1014.4 2.1 N 4.6 N 0.0 0.1
02:40 13.1 11.0 21.3 92.5 1014.4 2.4 NE 5.0 NNE 0.0 0.1
02:45 13.2 10.9 21.2 92.6 1014.3 0.0 NNE 0.0 ESE 0.0 0.1
02:50 13.1 10.9 21.2 92.6 1014.3 0.1 ESE 1.4 ESE 0.0 0.1
02:55 13.0 10.8 21.1 92.4 1014.3 1.0 WNW 2.8 NW 0.0 0.1
03:00 12.8 10.7 21.1 92.5 1014.3 1.7 SW 4.2 WSW 0.0 0.1
03:05 12.9 10.6 21.1 92.6 1014.3 2.0 SW 4.2 SSW 0.0 0.1
03:10 13.0 10.7 21.0 92.7 1014.3 2.6 SW 4.2 S 0.0 0.1
03:15 12.8 10.7 21.0 92.6 1014.3 1.4 WSW 3.5 WSW 0.0 0.1
03:20 12.9 10.6 21.0 92.7 1014.3 0.5 SW 3.2 SW 0.0 0.1
03:25 12.9 10.6 21.0 92.7 1014.2 0.0 NNE 0.0 WSW 0.0 0.1
03:30 12.8 10.5 20.9 92.8 1014.2 0.0 NNE 0.0 WNW 0.0 0.1
03:35 12.7 10.5 20.9 92.7 1014.2 0.2 NNW 2.1 NNW 0.0 0.1
03:40 12.7 10.4 20.9 92.8 1014.2 0.1 NNW 1.8 NNW 0.0 0.1
03:45 12.7 10.3 20.8 92.7 1014.2 0.8 NNE 2.8 NNE 0.0 0.1
03:50 12.7 10.3 20.8 92.7 1014.2 2.1 NE 3.2 ENE 0.0 0.1
03:55 12.7 10.4 20.7 92.8 1014.2 0.4 ENE 2.5 ENE 0.0 0.2
04:00 12.6 10.3 20.7 92.8 1014.2 0.0 NNE 0.0 ENE 0.0 0.4
04:05 12.4 10.4 20.7 92.8 1014.2 3.6 N 5.3 N 0.0 0.7
04:10 12.5 10.4 20.7 93.1 1014.2 2.9 NNE 5.0 N 0.0 1.5
04:15 12.6 10.5 20.6 93.0 1014.2 1.4 NNE 4.2 NNE 0.0 2.8
04:20 12.6 10.6 20.6 93.0 1014.1 1.1 NE 2.1 NE 0.0 4.9
04:25 12.6 10.6 20.6 92.9 1014.2 1.2 NNW 3.5 NNW 0.0 7.2
04:30 12.4 10.5 20.6 92.8 1014.2 2.3 N 3.5 NNE 0.0 9.6
04:35 12.3 10.5 20.5 92.9 1014.1 2.3 NNE 3.2 N 0.0 12.2
04:40 12.4 10.5 20.5 93.0 1014.0 1.4 NE 3.2 NNE 0.0 15.1
04:45 12.5 10.6 20.5 93.1 1014.0 0.1 ENE 1.8 SE 0.0 18.7
04:50 12.8 10.7 20.5 93.1 1014.0 2.9 SE 4.6 SSE 0.0 21.9
04:55 12.9 11.0 20.4 92.9 1014.0 1.6 ESE 3.2 ESE 0.0 24.8
05:00 12.9 11.1 20.4 92.9 1013.9 0.7 ESE 4.6 ESE 0.0 27.0
05:05 12.9 11.2 20.4 93.0 1013.9 1.7 ENE 4.2 ESE 0.0 34.1
05:10 13.0 11.4 20.3 93.0 1013.9 0.3 ENE 2.5 ENE 0.0 46.0
05:15 13.1 11.5 20.3 93.1 1014.0 0.2 ENE 1.8 E 0.0 38.2
05:20 13.1 11.7 20.3 93.1 1014.0 0.0 NNE 0.0 W 0.0 36.7
05:25 13.2 11.9 20.3 93.1 1014.0 1.5 WNW 3.2 WNW 0.0 38.7
05:30 13.3 12.0 20.3 93.1 1014.1 3.0 WNW 4.2 WNW 0.0 41.8
05:35 13.5 12.2 20.3 93.2 1014.2 2.1 NW 3.2 NNW 0.0 46.3
05:40 13.7 12.4 20.3 93.1 1014.2 0.0 NNE 0.0 NW 0.0 46.9
05:45 13.9 12.6 20.3 93.1 1014.2 0.0 NNE 0.0 NW 0.0 52.6
05:50 14.2 12.7 20.3 92.9 1014.3 0.0 NNE 0.0 NW 0.0 54.7
05:55 14.6 12.9 20.3 92.3 1014.3 0.0 NNE 0.0 NW 0.0 58.1
06:00 15.0 13.3 20.3 91.4 1014.4 2.0 NW 3.5 NW 0.0 142.4
06:05 15.3 13.6 20.3 91.2 1014.5 1.8 NW 3.2 NW 0.0 208.6
06:10 15.7 14.1 20.3 90.3 1014.5 1.3 NNW 3.5 NNE 0.0 219.2
06:15 16.3 15.0 20.3 88.0 1014.5 1.6 NNE 4.6 NNE 0.0 226.6
06:20 16.8 15.7 20.3 85.7 1014.5 2.8 NNE 5.0 N 0.0 247.6
06:25 16.8 16.2 20.4 86.3 1014.6 2.1 N 4.6 N 0.0 260.1
06:30 16.9 16.5 20.5 86.4 1014.6 2.8 N 4.6 N 0.0 276.4
06:35 17.3 16.7 20.8 85.1 1014.7 1.1 N 3.9 NNE 0.0 293.1
06:40 17.4 17.1 21.0 84.2 1014.7 0.9 N 4.2 N 0.0 302.1
06:45 17.8 17.5 21.1 83.4 1014.8 0.7 ENE 2.8 NE 0.0 303.2
06:50 18.2 18.2 21.2 82.7 1014.8 1.8 SSW 3.9 SSW 0.0 305.0
06:55 18.3 18.5 21.3 83.7 1014.7 2.1 SW 3.9 WSW 0.0 343.0
07:00 18.8 19.5 21.4 79.6 1014.7 2.2 NE 5.3 ENE 0.0 360.9
07:05 19.0 20.1 21.5 78.3 1014.7 1.8 ENE 4.6 ENE 0.0 366.7
07:10 19.1 20.3 21.6 80.2 1014.7 1.5 W 3.9 WNW 0.0 384.3
07:15 19.6 20.7 21.6 80.6 1014.6 1.3 NW 5.7 NNW 0.0 397.0
07:20 19.6 21.2 21.7 78.7 1014.6 2.1 NNW 5.3 NW 0.0 413.8
07:25 19.8 21.5 21.7 78.4 1014.6 1.1 NNW 3.9 N 0.0 434.9
07:30 20.2 21.9 21.7 77.7 1014.6 1.8 WNW 3.9 NNW 0.0 448.0
07:35 20.3 22.3 21.7 77.0 1014.5 1.7 NW 3.9 WNW 0.0 458.5
07:40 20.6 22.7 21.7 76.2 1014.5 2.6 NW 4.6 W 0.0 476.9
07:45 20.9 23.0 21.7 74.4 1014.5 1.7 NNW 4.2 WNW 0.0 487.7
07:50 21.2 23.3 21.6 69.6 1014.4 2.6 E 5.3 SE 0.0 502.6
07:55 21.3 23.5 21.6 72.4 1014.4 1.1 WNW 3.9 W 0.0 515.8
08:00 21.6 23.7 21.5 72.1 1014.3 1.7 SW 5.3 SSW 0.0 529.8
08:05 21.7 23.9 21.5 71.2 1014.2 1.5 WNW 4.2 WNW 0.0 543.9
08:10 22.0 24.3 21.5 70.3 1014.1 2.9 NNW 7.4 0.0 558.0
08:15 22.3 24.6 21.5 68.2 1013.9 2.3 N 6.7 N 0.0 572.1
08:20 22.7 24.8 21.6 70.5 1013.9 1.5 SW 3.2 SW 0.0 498.9
08:25 23.2 25.5 21.7 67.8 1013.9 2.8 NW 5.7 NNW 0.0 598.0
08:30 23.3 25.8 21.8 64.6 1014.0 0.6 WNW 3.2 WNW 0.0 610.3
08:35 23.7 26.2 21.9 65.0 1014.0 2.7 SSW 5.3 SSW 0.0 624.2
08:40 23.9 26.6 22.0 62.9 1013.9 1.9 SSE 4.6 S 0.0 637.3
08:45 24.0 26.9 22.1 63.3 1013.9 3.1 NNE 6.7 S 0.0 650.1
08:50 24.0 26.9 22.2 62.9 1013.8 3.7 S 5.3 SSE 0.0 663.0
08:55 24.2 27.3 22.3 64.8 1013.7 3.3 WSW 5.7 SW 0.0 674.4
09:00 24.5 27.5 22.5 63.7 1013.7 2.2 SW 4.6 WSW 0.0 685.4
09:05 25.0 28.1 22.7 62.2 1013.7 3.9 NE 8.5 ENE 0.0 695.7
09:10 25.4 28.7 23.0 60.8 1013.7 2.6 E 6.4 ESE 0.0 708.6
09:15 25.8 28.8 23.2 57.9 1013.6 4.7 SSE 10.6 SSE 0.0 718.7
09:20 25.8 28.6 23.4 58.5 1013.6 3.8 S 7.8 SSE 0.0 728.8
09:25 26.4 29.1 23.5 53.2 1013.6 6.1 SE 15.5 SSE 0.0 738.2
Màxima 26.7 29.1 23.5 93.3 1015.4 6.1 SE 15.5 SSE 0.0 738.2
Mínima 12.3 10.3 20 53.2 1013.6
Total 0.0